Time;durP1;ratioP1;P1;durP2;ratioP2;P2;SDS_P1;SDS_P2;PMS_P1;PMS_P2;Temp;Humidity;BMP_temperature;BMP_pressure;BME280_temperature;BME280_humidity;BME280_pressure;Samples;Min_cycle;Max_cycle;Signal;HPM_P1;HPM_P2
2024/03/02 00:01:29;;;;;;;105.20;73.60;;;;;;;11.39;100.00;99402.69;182496;1234;45964;-87
2024/03/02 00:05:31;;;;;;;104.80;73.90;;;;;;;11.38;100.00;99401.72;182755;1235;46087;-85
2024/03/02 00:09:33;;;;;;;107.80;75.50;;;;;;;11.39;100.00;99398.57;182244;1235;58116;-86
2024/03/02 00:13:35;;;;;;;99.80;67.80;;;;;;;11.36;100.00;99395.73;182473;1238;44016;-86
2024/03/02 00:17:37;;;;;;;106.20;69.90;;;;;;;11.32;100.00;99391.98;182409;1235;46100;-87
2024/03/02 00:21:39;;;;;;;104.60;74.00;;;;;;;11.31;100.00;99388.77;183772;1234;46083;-86
2024/03/02 00:25:48;;;;;;;110.60;76.60;;;;;;;11.32;100.00;99386.74;182979;1236;45996;-86
2024/03/02 00:29:50;;;;;;;106.10;71.30;;;;;;;11.34;100.00;99379.98;182865;1234;57822;-86
2024/03/02 00:33:53;;;;;;;98.40;69.90;;;;;;;11.36;100.00;99377.42;182617;1239;46072;-86
2024/03/02 00:37:54;;;;;;;98.80;68.70;;;;;;;11.36;100.00;99379.20;183047;1235;45898;-87
2024/03/02 00:41:56;;;;;;;102.70;74.10;;;;;;;11.39;100.00;99378.58;182530;1235;46099;-86
2024/03/02 00:45:58;;;;;;;100.10;67.30;;;;;;;11.41;100.00;99381.88;183050;1238;46076;-86
2024/03/02 00:50:00;;;;;;;103.10;72.10;;;;;;;11.40;100.00;99380.97;182657;1235;59587;-86
2024/03/02 00:54:09;;;;;;;91.60;68.80;;;;;;;11.43;100.00;99378.57;182925;1237;46059;-87
2024/03/02 00:58:10;;;;;;;111.50;73.20;;;;;;;11.43;100.00;99385.61;183396;1235;46018;-86
2024/03/02 01:02:12;;;;;;;107.80;72.60;;;;;;;11.40;100.00;99381.44;182433;1235;46148;-86
2024/03/02 01:06:15;;;;;;;109.20;76.90;;;;;;;11.34;100.00;99378.65;183216;1236;46005;-86
2024/03/02 01:10:17;;;;;;;108.40;73.50;;;;;;;11.34;100.00;99375.92;183093;1238;59920;-87
2024/03/02 01:14:19;;;;;;;105.50;76.00;;;;;;;11.30;100.00;99383.04;182983;1236;45928;-87
2024/03/02 01:18:22;;;;;;;94.80;72.80;;;;;;;11.30;100.00;99376.98;182154;1238;46102;-87
2024/03/02 01:22:25;;;;;;;111.50;78.00;;;;;;;11.24;100.00;99383.00;182530;1235;45948;-87
2024/03/02 01:26:27;;;;;;;103.90;77.30;;;;;;;11.23;100.00;99381.03;182716;1235;45961;-87
2024/03/02 01:30:28;;;;;;;101.10;76.30;;;;;;;11.26;100.00;99379.12;182941;1235;59108;-87
2024/03/02 01:34:30;;;;;;;117.40;83.10;;;;;;;11.26;100.00;99378.58;182693;1235;46084;-86
2024/03/02 01:38:33;;;;;;;112.30;80.60;;;;;;;11.26;100.00;99376.29;182778;1235;46038;-85
2024/03/02 01:42:37;;;;;;;121.30;82.10;;;;;;;11.27;100.00;99379.19;183313;1235;43920;-87
2024/03/02 01:46:38;;;;;;;114.50;80.80;;;;;;;11.28;100.00;99373.73;183118;1236;45964;-84
2024/03/02 01:50:41;;;;;;;108.80;79.90;;;;;;;11.28;100.00;99369.88;182782;1235;58992;-86
2024/03/02 01:54:42;;;;;;;119.30;81.30;;;;;;;11.23;100.00;99369.31;182644;1238;46099;-86
2024/03/02 01:58:44;;;;;;;118.50;83.70;;;;;;;11.20;100.00;99364.95;182794;1238;46100;-86
2024/03/02 02:02:48;;;;;;;104.00;71.50;;;;;;;11.09;100.00;99362.76;182289;1239;46203;-85
2024/03/02 02:06:49;;;;;;;106.70;78.50;;;;;;;11.07;100.00;99363.57;182751;1235;46015;-86
2024/03/02 02:10:52;;;;;;;105.00;73.80;;;;;;;11.08;100.00;99358.22;182786;1235;57768;-88
2024/03/02 02:14:54;;;;;;;114.10;82.00;;;;;;;11.14;100.00;99356.37;182407;1238;46079;-87
2024/03/02 02:18:55;;;;;;;121.40;76.70;;;;;;;11.17;100.00;99352.27;182604;1238;46085;-87
2024/03/02 02:23:09;;;;;;;112.20;79.20;;;;;;;11.21;100.00;99352.80;183165;1235;45874;-87
2024/03/02 02:27:14;;;;;;;116.80;78.70;;;;;;;11.20;100.00;99352.58;182296;1239;46090;-87
2024/03/02 02:31:16;;;;;;;109.60;78.40;;;;;;;11.22;100.00;99351.50;182982;1235;59498;-87
2024/03/02 02:35:18;;;;;;;119.90;84.10;;;;;;;11.23;100.00;99347.31;182797;1235;46059;-87
2024/03/02 02:39:22;;;;;;;117.30;81.10;;;;;;;11.22;100.00;99343.52;182996;1236;46460;-86
2024/03/02 02:43:24;;;;;;;116.80;78.70;;;;;;;11.22;100.00;99341.38;182399;1239;46853;-86
2024/03/02 02:47:26;;;;;;;110.20;77.20;;;;;;;11.22;100.00;99334.94;182481;1238;46048;-85
2024/03/02 02:51:28;;;;;;;110.20;76.20;;;;;;;11.23;100.00;99330.74;182837;1235;57842;-85
2024/03/02 02:55:29;;;;;;;102.90;72.70;;;;;;;11.23;100.00;99330.73;182538;1234;46085;-87
2024/03/02 02:59:31;;;;;;;106.00;72.90;;;;;;;11.29;100.00;99328.10;182770;1235;46064;-87
2024/03/02 03:03:33;;;;;;;108.80;75.10;;;;;;;11.33;100.00;99331.81;182814;1236;45938;-85
2024/03/02 03:07:36;;;;;;;109.70;74.70;;;;;;;11.33;100.00;99336.02;182584;1238;46102;-85
2024/03/02 03:11:38;;;;;;;102.80;73.50;;;;;;;11.31;100.00;99337.43;182060;1237;59521;-86
2024/03/02 03:15:40;;;;;;;102.70;73.10;;;;;;;11.30;100.00;99333.30;182498;1234;44770;-86
2024/03/02 03:19:42;;;;;;;106.00;74.20;;;;;;;11.32;100.00;99334.57;182549;1235;44726;-86
2024/03/02 03:23:44;;;;;;;101.10;72.50;;;;;;;11.30;100.00;99329.20;182697;1239;46031;-87
2024/03/02 03:27:46;;;;;;;97.60;71.80;;;;;;;11.32;100.00;99332.55;182297;1239;46093;-87
2024/03/02 03:31:47;;;;;;;105.80;77.30;;;;;;;11.34;100.00;99336.77;182180;1239;57225;-87
2024/03/02 03:35:49;;;;;;;106.10;74.10;;;;;;;11.36;100.00;99334.44;182166;1236;44269;-88
2024/03/02 03:39:51;;;;;;;116.90;79.20;;;;;;;11.37;100.00;99335.13;182396;1237;44896;-87
2024/03/02 03:43:53;;;;;;;121.70;80.00;;;;;;;11.34;100.00;99342.67;183117;1234;46053;-88
2024/03/02 03:47:55;;;;;;;111.90;78.60;;;;;;;11.28;100.00;99343.96;182686;1237;46150;-86
2024/03/02 03:51:57;;;;;;;121.50;79.30;;;;;;;11.21;100.00;99345.50;182806;1237;59371;-87
2024/03/02 03:55:59;;;;;;;90.20;65.80;;;;;;;11.10;100.00;99351.45;182368;1239;46195;-87
2024/03/02 04:00:01;;;;;;;103.40;70.20;;;;;;;10.96;100.00;99356.28;183429;1235;46021;-87
2024/03/02 04:04:03;;;;;;;110.90;76.20;;;;;;;10.91;100.00;99360.55;182984;1238;46118;-83
2024/03/02 04:08:05;;;;;;;115.60;76.70;;;;;;;10.93;100.00;99355.73;183239;1235;45985;-84
2024/03/02 04:12:07;;;;;;;110.70;73.60;;;;;;;10.95;100.00;99353.23;182369;1235;58042;-84
2024/03/02 04:16:09;;;;;;;103.40;71.90;;;;;;;10.96;100.00;99355.08;182633;1239;45961;-84
2024/03/02 04:20:12;;;;;;;109.70;75.20;;;;;;;10.96;100.00;99357.14;183480;1234;46042;-85
2024/03/02 04:24:14;;;;;;;107.40;73.30;;;;;;;10.96;100.00;99355.65;182615;1238;45992;-83
2024/03/02 04:28:16;;;;;;;106.70;71.50;;;;;;;10.92;100.00;99356.70;183296;1235;46053;-85
2024/03/02 04:32:19;;;;;;;105.00;72.20;;;;;;;10.86;100.00;99361.90;182907;1235;58283;-86
2024/03/02 04:36:21;;;;;;;110.30;76.90;;;;;;;10.85;100.00;99365.02;183079;1238;46539;-88
2024/03/02 04:40:23;;;;;;;107.80;75.60;;;;;;;10.84;100.00;99366.54;182514;1239;46018;-87
2024/03/02 04:44:24;;;;;;;123.80;78.10;;;;;;;10.82;100.00;99370.08;182913;1234;46075;-84
2024/03/02 04:48:26;;;;;;;119.40;78.00;;;;;;;10.80;100.00;99383.48;182248;1239;46095;-84
2024/03/02 04:52:28;;;;;;;113.60;75.00;;;;;;;10.78;100.00;99385.61;182653;1239;57776;-84
2024/03/02 05:00:37;;;;;;;114.80;78.10;;;;;;;10.74;100.00;99391.80;182426;1235;46031;-85
2024/03/02 05:04:40;;;;;;;110.50;74.50;;;;;;;10.75;100.00;99397.03;183234;1238;45842;-85
2024/03/02 05:08:41;;;;;;;115.50;77.50;;;;;;;10.70;100.00;99398.05;182582;1238;46081;-84
2024/03/02 05:16:45;;;;;;;108.20;74.60;;;;;;;10.50;100.00;99400.10;182230;1239;45959;-87
2024/03/02 05:20:47;;;;;;;109.70;68.00;;;;;;;10.41;100.00;99401.99;182604;1237;46171;-86
2024/03/02 05:24:49;;;;;;;100.70;69.60;;;;;;;10.36;100.00;99402.80;182898;1238;46094;-87
2024/03/02 05:28:51;;;;;;;111.10;77.40;;;;;;;10.31;100.00;99410.92;183175;1235;45135;-86
2024/03/02 05:32:53;;;;;;;106.20;72.80;;;;;;;10.23;100.00;99418.23;182769;1235;57791;-84
2024/03/02 05:36:55;;;;;;;111.40;71.70;;;;;;;10.25;100.00;99419.11;183024;1235;46086;-88
2024/03/02 05:40:57;;;;;;;106.70;76.70;;;;;;;10.26;100.00;99418.85;183678;1235;45133;-84
2024/03/02 05:44:59;;;;;;;99.20;73.70;;;;;;;10.25;100.00;99422.48;182094;1235;46086;-84
2024/03/02 05:49:01;;;;;;;119.50;77.10;;;;;;;10.24;100.00;99425.39;183016;1235;46086;-86
2024/03/02 05:53:03;;;;;;;106.30;70.30;;;;;;;10.16;100.00;99426.27;182494;1240;58306;-84
2024/03/02 06:01:28;;;;;;;105.10;67.80;;;;;;;10.17;100.00;99439.86;183044;1236;46109;-84
2024/03/02 06:05:30;;;;;;;105.10;71.00;;;;;;;10.20;100.00;99444.70;183344;1237;45938;-85
2024/03/02 06:09:32;;;;;;;99.30;69.40;;;;;;;10.24;100.00;99451.40;183045;1235;46097;-86
2024/03/02 06:13:34;;;;;;;103.10;69.50;;;;;;;10.26;100.00;99451.19;183895;1235;58058;-84
2024/03/02 06:17:36;;;;;;;102.50;73.30;;;;;;;10.27;100.00;99454.91;182770;1235;46025;-85
2024/03/02 06:21:37;;;;;;;99.70;71.60;;;;;;;10.26;100.00;99453.52;183639;1237;45821;-85
2024/03/02 06:25:39;;;;;;;97.00;69.80;;;;;;;10.29;100.00;99455.77;183712;1235;45973;-83
2024/03/02 06:29:41;;;;;;;102.70;73.50;;;;;;;10.38;100.00;99460.72;183721;1235;45935;-84
2024/03/02 06:33:43;;;;;;;107.40;79.70;;;;;;;10.40;100.00;99455.73;182754;1235;58063;-85
2024/03/02 06:37:45;;;;;;;118.30;82.80;;;;;;;10.43;100.00;99456.60;182367;1235;46079;-85
2024/03/02 06:41:47;;;;;;;105.20;73.30;;;;;;;10.45;100.00;99455.55;183097;1238;46047;-86
2024/03/02 06:45:52;;;;;;;114.00;77.40;;;;;;;10.39;100.00;99453.90;182539;1238;44683;-85
2024/03/02 06:49:54;;;;;;;107.60;75.10;;;;;;;10.50;100.00;99452.64;182248;1236;45967;-85
2024/03/02 06:53:56;;;;;;;98.80;66.30;;;;;;;10.59;100.00;99449.45;182136;1240;59558;-85
2024/03/02 06:57:58;;;;;;;101.90;70.40;;;;;;;10.64;100.00;99444.91;182483;1235;46391;-85
2024/03/02 07:02:00;;;;;;;106.30;73.40;;;;;;;10.64;100.00;99440.48;183253;1235;46006;-85
2024/03/02 07:06:02;;;;;;;88.70;62.90;;;;;;;10.71;100.00;99442.21;182637;1238;45972;-85
2024/03/02 07:10:07;;;;;;;103.40;62.80;;;;;;;10.74;100.00;99452.59;183266;1235;45979;-84
2024/03/02 07:14:09;;;;;;;91.60;66.60;;;;;;;10.71;100.00;99459.83;182732;1238;57990;-85
2024/03/02 07:18:10;;;;;;;90.90;62.80;;;;;;;10.73;100.00;99466.92;183120;1238;46074;-83
2024/03/02 07:22:13;;;;;;;87.70;59.90;;;;;;;10.71;100.00;99463.20;183934;1235;46093;-85
2024/03/02 07:26:15;;;;;;;89.70;68.20;;;;;;;10.74;100.00;99468.57;183043;1235;44019;-82
2024/03/02 07:30:19;;;;;;;86.50;57.90;;;;;;;10.86;100.00;99462.46;182571;1235;46093;-85
2024/03/02 07:34:21;;;;;;;88.10;58.60;;;;;;;10.87;100.00;99461.02;182884;1234;58113;-86
2024/03/02 07:38:23;;;;;;;85.10;61.60;;;;;;;10.97;100.00;99456.58;182386;1235;47669;-85
2024/03/02 07:42:25;;;;;;;80.90;53.20;;;;;;;11.23;100.00;99451.28;182792;1235;46180;-83
2024/03/02 07:46:27;;;;;;;76.20;55.30;;;;;;;11.47;100.00;99461.52;183692;1239;46155;-85
2024/03/02 07:50:30;;;;;;;74.70;57.10;;;;;;;11.75;100.00;99468.41;182734;1235;45965;-85
2024/03/02 07:54:31;;;;;;;79.70;54.90;;;;;;;12.12;100.00;99475.04;182737;1235;59242;-87
2024/03/02 07:58:35;;;;;;;79.70;54.30;;;;;;;12.39;100.00;99478.57;182796;1235;46073;-86
2024/03/02 08:02:37;;;;;;;82.80;53.80;;;;;;;12.65;100.00;99479.51;183684;1235;44312;-85
2024/03/02 08:06:38;;;;;;;72.60;52.20;;;;;;;12.88;100.00;99481.95;182909;1235;44092;-85
2024/03/02 08:10:40;;;;;;;68.60;48.50;;;;;;;13.08;100.00;99480.59;182816;1236;46086;-84
2024/03/02 08:14:42;;;;;;;58.90;45.10;;;;;;;13.16;100.00;99481.81;182371;1235;58151;-84
2024/03/02 08:18:44;;;;;;;62.30;46.90;;;;;;;13.14;100.00;99486.11;182257;1235;45874;-87
2024/03/02 08:22:47;;;;;;;59.50;40.30;;;;;;;13.13;100.00;99488.94;182397;1235;46141;-86
2024/03/02 08:26:49;;;;;;;60.10;42.70;;;;;;;12.99;100.00;99495.14;182753;1235;46017;-85
2024/03/02 08:30:50;;;;;;;58.80;40.50;;;;;;;12.97;100.00;99492.90;182543;1235;45973;-84
2024/03/02 08:34:52;;;;;;;58.90;41.00;;;;;;;12.97;100.00;99492.30;182462;1235;59513;-84
2024/03/02 08:38:54;;;;;;;53.90;39.10;;;;;;;13.04;100.00;99489.19;182442;1235;45964;-84
2024/03/02 08:42:56;;;;;;;71.80;40.40;;;;;;;13.17;100.00;99484.22;183259;1235;46119;-85
2024/03/02 08:46:58;;;;;;;57.70;40.90;;;;;;;13.30;100.00;99487.90;182260;1238;45959;-84
2024/03/02 08:51:00;;;;;;;52.80;37.70;;;;;;;13.46;100.00;99488.89;182486;1235;46059;-84
2024/03/02 08:55:02;;;;;;;64.90;41.60;;;;;;;13.61;100.00;99493.23;183194;1236;59355;-84
2024/03/02 08:59:04;;;;;;;56.10;36.00;;;;;;;13.67;100.00;99501.39;182351;1235;46077;-85
2024/03/02 09:03:07;;;;;;;49.50;35.60;;;;;;;13.69;100.00;99500.69;182221;1235;44248;-85
2024/03/02 09:07:09;;;;;;;50.70;31.10;;;;;;;13.68;100.00;99503.45;182488;1238;46093;-85
2024/03/02 09:11:11;;;;;;;39.80;30.40;;;;;;;13.64;100.00;99504.06;182862;1235;45993;-85
2024/03/02 09:15:13;;;;;;;47.20;33.10;;;;;;;13.61;100.00;99511.32;183149;1235;59948;-85
2024/03/02 09:19:15;;;;;;;45.50;34.00;;;;;;;13.66;100.00;99510.77;182706;1238;46078;-85
2024/03/02 09:23:16;;;;;;;44.20;32.50;;;;;;;13.81;100.00;99505.60;182702;1234;45992;-85
2024/03/02 09:27:18;;;;;;;50.10;32.70;;;;;;;13.95;100.00;99506.27;182618;1235;46073;-84
2024/03/02 09:31:20;;;;;;;48.00;30.40;;;;;;;14.07;100.00;99504.61;182947;1234;46037;-85
2024/03/02 09:35:22;;;;;;;39.10;28.30;;;;;;;14.25;100.00;99502.23;182736;1235;58112;-82
2024/03/02 09:39:25;;;;;;;44.10;28.60;;;;;;;14.36;99.72;99497.59;182494;1237;46003;-87
2024/03/02 09:43:27;;;;;;;44.10;29.20;;;;;;;14.41;99.80;99495.73;182036;1238;46002;-85
2024/03/02 09:47:28;;;;;;;41.80;31.00;;;;;;;14.45;99.92;99495.83;182990;1238;46021;-85
2024/03/02 09:51:31;;;;;;;33.90;26.20;;;;;;;14.61;97.96;99498.05;182361;1234;46526;-85
2024/03/02 09:55:33;;;;;;;34.00;23.60;;;;;;;14.67;96.17;99497.76;182351;1238;57980;-86
2024/03/02 09:59:35;;;;;;;39.00;27.30;;;;;;;14.75;95.90;99494.79;182378;1235;46152;-86
2024/03/02 10:03:37;;;;;;;39.90;29.80;;;;;;;14.78;96.84;99491.76;182391;1235;45999;-85
2024/03/02 10:07:41;;;;;;;38.80;26.50;;;;;;;14.92;96.82;99491.73;182710;1236;45964;-85
2024/03/02 10:11:43;;;;;;;42.30;27.10;;;;;;;15.08;94.17;99489.48;182154;1235;46138;-84
2024/03/02 10:15:46;;;;;;;35.00;23.10;;;;;;;15.04;92.38;99489.00;182257;1236;59482;-84
2024/03/02 10:19:48;;;;;;;38.70;25.10;;;;;;;14.92;93.30;99485.84;182362;1235;46391;-86
2024/03/02 10:23:50;;;;;;;34.30;23.40;;;;;;;14.91;92.78;99484.24;182408;1238;46209;-86
2024/03/02 10:27:51;;;;;;;35.70;23.70;;;;;;;15.00;92.40;99487.13;182534;1234;46002;-86
2024/03/02 10:31:54;;;;;;;30.10;21.40;;;;;;;15.02;91.62;99483.02;183006;1235;46097;-86
2024/03/02 10:35:56;;;;;;;40.60;24.60;;;;;;;14.97;91.73;99485.52;182897;1238;57983;-85
2024/03/02 10:40:05;;;;;;;52.90;25.80;;;;;;;14.92;94.68;99489.24;182405;1235;46525;-85
2024/03/02 10:44:09;;;;;;;47.10;27.10;;;;;;;14.94;93.47;99490.85;182450;1235;46030;-85
2024/03/02 10:48:10;;;;;;;30.10;24.80;;;;;;;15.03;94.95;99493.19;183660;1238;46093;-85
2024/03/02 10:52:12;;;;;;;39.80;24.10;;;;;;;15.15;94.45;99493.14;183870;1235;44695;-85
2024/03/02 10:56:22;;;;;;;46.80;27.70;;;;;;;15.22;92.48;99495.67;183174;1238;58057;-85
2024/03/02 11:00:29;;;;;;;41.80;26.40;;;;;;;15.33;93.23;99494.29;182583;1235;46216;-83
2024/03/02 11:04:32;;;;;;;33.00;22.10;;;;;;;15.42;90.81;99493.05;183177;1235;46187;-88
2024/03/02 11:08:37;;;;;;;31.40;22.10;;;;;;;15.44;89.82;99493.71;183484;1235;43971;-85
2024/03/02 11:12:56;;;;;;;28.20;21.90;;;;;;;15.35;89.34;99488.50;183157;1235;45973;-83
2024/03/02 11:16:58;;;;;;;34.40;23.80;;;;;;;15.29;89.93;99486.03;183707;1238;57985;-84
2024/03/02 11:21:02;;;;;;;36.30;23.50;;;;;;;15.27;91.83;99489.55;183534;1238;46106;-84
2024/03/02 11:25:05;;;;;;;38.30;27.80;;;;;;;15.24;92.62;99490.65;183288;1237;46089;-84
2024/03/02 11:29:07;;;;;;;40.90;30.60;;;;;;;15.24;95.00;99487.64;183229;1235;251722;-83
2024/03/02 11:33:10;;;;;;;35.90;27.90;;;;;;;15.31;94.71;99490.61;182475;1238;46114;-84
2024/03/02 11:37:15;;;;;;;36.60;24.80;;;;;;;15.39;94.76;99482.56;183347;1235;59445;-85
2024/03/02 11:41:19;;;;;;;40.20;25.60;;;;;;;15.33;95.99;99483.00;182481;1235;45946;-84
2024/03/02 11:45:24;;;;;;;39.40;28.40;;;;;;;15.37;96.65;99475.40;183335;1234;45962;-86
2024/03/02 11:49:59;;;;;;;54.50;30.90;;;;;;;15.49;94.10;99476.60;183145;1238;46055;-84
2024/03/02 11:54:04;;;;;;;39.20;27.40;;;;;;;15.51;95.19;99473.00;182027;1235;46920;-84
2024/03/02 11:58:07;;;;;;;41.40;30.30;;;;;;;15.45;95.01;99475.83;182777;1238;60229;-85
2024/03/02 12:02:16;;;;;;;45.40;30.90;;;;;;;15.55;95.04;99477.13;182473;1235;46103;-85
2024/03/02 12:06:20;;;;;;;39.80;30.50;;;;;;;15.59;93.70;99475.76;182485;1236;46058;-85
2024/03/02 12:10:22;;;;;;;45.40;30.60;;;;;;;15.61;94.15;99475.66;182273;1234;45970;-84
2024/03/02 12:14:24;;;;;;;47.90;29.20;;;;;;;15.62;93.15;99470.31;182747;1234;46054;-84
2024/03/02 12:18:26;;;;;;;37.80;27.40;;;;;;;15.48;93.86;99475.20;182692;1235;57008;-84
2024/03/02 12:22:29;;;;;;;37.10;27.80;;;;;;;15.57;95.11;99473.52;182857;1235;45987;-85
2024/03/02 12:26:31;;;;;;;57.70;33.90;;;;;;;15.68;93.08;99466.48;182734;1236;46092;-85
2024/03/02 12:30:35;;;;;;;36.60;25.30;;;;;;;15.74;92.21;99471.56;182902;1235;44445;-86
2024/03/02 12:34:39;;;;;;;35.90;25.10;;;;;;;15.82;91.80;99470.42;182342;1235;46075;-86
2024/03/02 12:38:44;;;;;;;36.20;28.00;;;;;;;15.86;90.10;99468.35;182590;1234;58164;-85
2024/03/02 12:42:47;;;;;;;44.80;34.30;;;;;;;15.92;91.60;99467.70;182798;1234;46302;-85
2024/03/02 12:46:49;;;;;;;42.20;32.60;;;;;;;15.97;93.15;99466.38;182794;1234;46003;-83
2024/03/02 12:50:52;;;;;;;42.70;27.90;;;;;;;15.99;92.96;99463.84;183383;1237;46070;-85
2024/03/02 12:54:58;;;;;;;41.80;28.10;;;;;;;16.00;93.54;99460.34;182526;1235;45994;-85
2024/03/02 12:59:00;;;;;;;37.60;27.50;;;;;;;15.98;93.51;99456.61;183112;1238;58524;-84
2024/03/02 13:03:03;;;;;;;32.10;26.50;;;;;;;15.98;93.11;99454.17;182336;1235;46074;-83
2024/03/02 13:07:05;;;;;;;42.60;30.30;;;;;;;15.99;94.96;99451.26;182495;1234;46065;-85
2024/03/02 13:11:07;;;;;;;36.00;28.20;;;;;;;16.04;94.97;99452.20;182169;1235;46354;-84
2024/03/02 13:15:10;;;;;;;83.30;34.30;;;;;;;16.02;94.16;99452.55;182541;1235;45997;-84
2024/03/02 13:19:18;;;;;;;36.60;25.50;;;;;;;16.04;93.92;99454.73;182924;1235;58622;-85
2024/03/02 13:23:20;;;;;;;40.20;27.70;;;;;;;16.03;92.89;99454.83;182856;1236;46413;-85
2024/03/02 13:27:22;;;;;;;33.70;24.10;;;;;;;16.07;94.55;99458.95;182736;1235;45988;-85
2024/03/02 13:31:24;;;;;;;40.00;26.70;;;;;;;16.11;94.20;99457.94;182704;1237;46206;-84
2024/03/02 13:35:26;;;;;;;42.20;25.60;;;;;;;16.12;95.07;99458.42;182284;1237;45994;-85
2024/03/02 13:39:30;;;;;;;38.10;26.10;;;;;;;16.08;95.84;99454.98;182880;1238;57928;-85
2024/03/02 13:43:32;;;;;;;42.70;28.80;;;;;;;16.06;96.72;99453.42;182317;1236;46080;-86
2024/03/02 13:47:34;;;;;;;38.60;26.20;;;;;;;15.96;94.74;99458.11;182930;1236;45999;-85
2024/03/02 13:51:36;;;;;;;42.50;26.40;;;;;;;15.85;94.41;99456.70;182472;1238;45974;-85
2024/03/02 13:55:38;;;;;;;38.20;25.20;;;;;;;15.76;94.53;99456.52;182436;1235;46081;-85
2024/03/02 13:59:41;;;;;;;41.00;26.90;;;;;;;15.67;94.52;99453.59;182567;1236;58361;-83
2024/03/02 14:03:43;;;;;;;39.30;27.50;;;;;;;15.67;96.70;99453.05;182478;1238;43979;-85
2024/03/02 14:07:45;;;;;;;35.80;26.30;;;;;;;15.62;96.06;99453.22;182484;1235;46074;-84
2024/03/02 14:11:46;;;;;;;36.80;26.20;;;;;;;15.58;97.03;99454.09;182486;1236;46105;-85
2024/03/02 14:15:48;;;;;;;35.60;27.00;;;;;;;15.53;97.11;99452.88;182295;1236;46109;-85
2024/03/02 14:19:52;;;;;;;33.60;26.60;;;;;;;15.46;96.81;99452.55;182531;1235;59441;-85
2024/03/02 14:23:54;;;;;;;44.60;26.80;;;;;;;15.39;98.17;99450.20;182415;1236;46061;-84
2024/03/02 14:27:57;;;;;;;35.10;27.60;;;;;;;15.34;99.16;99450.73;182705;1235;45922;-85
2024/03/02 14:32:19;;;;;;;40.60;30.40;;;;;;;15.29;100.00;99454.95;182539;1238;46200;-85
2024/03/02 14:36:20;;;;;;;48.40;28.10;;;;;;;15.27;100.00;99454.04;182901;1235;45954;-84
2024/03/02 14:40:25;;;;;;;46.00;31.90;;;;;;;15.26;100.00;99455.90;182618;1235;59421;-85
2024/03/02 14:44:27;;;;;;;42.60;30.80;;;;;;;15.26;100.00;99450.55;182693;1235;46286;-85
2024/03/02 14:48:29;;;;;;;37.20;27.60;;;;;;;15.26;100.00;99445.56;182319;1235;45926;-84
2024/03/02 14:52:30;;;;;;;43.70;32.40;;;;;;;15.25;100.00;99445.30;182187;1237;46089;-84
2024/03/02 14:56:32;;;;;;;42.00;26.80;;;;;;;15.24;99.96;99441.73;182063;1238;46104;-85
2024/03/02 15:00:34;;;;;;;36.90;27.30;;;;;;;15.21;99.89;99437.18;182253;1235;58139;-84
2024/03/02 15:04:36;;;;;;;50.20;26.10;;;;;;;15.19;100.00;99434.92;182586;1236;46063;-84
2024/03/02 15:08:37;;;;;;;33.20;25.20;;;;;;;15.17;100.00;99430.27;183088;1238;46148;-85
2024/03/02 15:12:39;;;;;;;36.90;26.50;;;;;;;15.14;100.00;99429.30;182455;1234;46087;-85
2024/03/02 15:16:42;;;;;;;35.70;26.30;;;;;;;15.11;100.00;99434.93;182232;1238;45865;-84
2024/03/02 15:20:44;;;;;;;36.20;27.50;;;;;;;15.10;100.00;99433.36;182128;1235;58007;-84
2024/03/02 15:24:46;;;;;;;42.80;29.00;;;;;;;15.07;100.00;99431.55;182437;1237;46687;-84
2024/03/02 15:28:47;;;;;;;33.80;25.00;;;;;;;15.00;100.00;99431.08;182496;1235;46014;-85
2024/03/02 15:32:49;;;;;;;50.70;32.50;;;;;;;14.92;100.00;99430.65;182177;1235;46147;-84
2024/03/02 15:36:51;;;;;;;52.80;38.40;;;;;;;14.80;100.00;99434.73;182411;1238;45308;-85
2024/03/02 15:40:53;;;;;;;72.50;49.90;;;;;;;14.70;100.00;99436.22;182175;1236;57891;-84
2024/03/02 15:44:55;;;;;;;61.60;39.90;;;;;;;14.60;100.00;99439.06;182313;1235;44642;-84
2024/03/02 15:48:57;;;;;;;65.20;43.20;;;;;;;14.54;100.00;99438.85;182429;1235;46060;-85
2024/03/02 15:53:03;;;;;;;69.90;42.90;;;;;;;14.48;100.00;99437.53;182301;1234;45979;-84
2024/03/02 15:57:05;;;;;;;;;;;;;;;14.47;100.00;99440.95;182522;1238;46085;-84
2024/03/02 16:01:06;;;;;;;62.60;37.10;;;;;;;14.44;100.00;99439.80;182722;1238;59036;-84
2024/03/02 16:05:09;;;;;;;46.50;34.80;;;;;;;14.40;100.00;99441.30;183325;1236;45808;-85
2024/03/02 16:09:10;;;;;;;48.70;33.90;;;;;;;14.34;100.00;99437.50;182565;1238;46079;-85
2024/03/02 16:13:12;;;;;;;46.00;32.30;;;;;;;14.32;100.00;99437.77;182292;1234;45997;-84
2024/03/02 16:17:14;;;;;;;55.60;37.20;;;;;;;14.25;100.00;99434.41;182016;1238;45979;-82
2024/03/02 16:21:16;;;;;;;61.70;42.30;;;;;;;14.20;100.00;99436.95;182316;1234;59337;-84
2024/03/02 16:25:18;;;;;;;55.20;37.60;;;;;;;14.12;100.00;99431.66;182283;1235;46451;-84
2024/03/02 16:29:20;;;;;;;57.80;39.90;;;;;;;14.07;100.00;99432.77;182145;1236;46159;-84
2024/03/02 16:33:22;;;;;;;59.90;39.50;;;;;;;14.03;100.00;99432.55;182228;1235;46367;-84
2024/03/02 16:37:26;;;;;;;61.10;41.10;;;;;;;13.99;100.00;99430.83;182315;1235;46096;-85
2024/03/02 16:41:29;;;;;;;83.30;55.80;;;;;;;13.91;100.00;99433.69;182191;1239;57814;-84
2024/03/02 16:45:31;;;;;;;74.30;54.60;;;;;;;13.83;100.00;99439.88;182604;1238;46469;-85
2024/03/02 16:49:33;;;;;;;50.90;38.50;;;;;;;13.76;100.00;99441.65;182191;1238;46038;-85
2024/03/02 16:53:35;;;;;;;50.30;36.60;;;;;;;13.71;100.00;99443.86;182268;1238;46464;-84
2024/03/02 16:57:36;;;;;;;49.10;34.90;;;;;;;13.63;100.00;99443.09;182307;1235;46002;-85
2024/03/02 17:01:38;;;;;;;51.20;34.80;;;;;;;13.56;100.00;99448.80;182964;1235;59630;-83
2024/03/02 17:05:40;;;;;;;49.50;36.60;;;;;;;13.53;100.00;99448.89;182742;1235;45992;-84
2024/03/02 17:09:42;;;;;;;75.10;48.70;;;;;;;13.49;100.00;99445.86;182365;1238;46196;-85
2024/03/02 17:13:44;;;;;;;71.60;54.00;;;;;;;13.43;100.00;99444.60;182597;1235;46079;-84
2024/03/02 17:17:46;;;;;;;57.00;42.00;;;;;;;13.41;100.00;99444.62;182314;1238;46133;-85
2024/03/02 17:21:48;;;;;;;86.70;55.70;;;;;;;13.37;100.00;99449.35;182416;1238;59428;-84
2024/03/02 17:25:49;;;;;;;57.70;39.20;;;;;;;13.31;100.00;99456.05;182129;1235;46053;-84
2024/03/02 17:29:51;;;;;;;57.10;39.60;;;;;;;13.26;100.00;99455.88;182368;1235;45992;-85
2024/03/02 17:33:53;;;;;;;57.90;40.40;;;;;;;13.21;100.00;99458.40;182262;1235;46175;-83
2024/03/02 17:37:55;;;;;;;63.60;43.90;;;;;;;13.16;100.00;99457.80;182122;1238;45998;-84
2024/03/02 17:41:57;;;;;;;69.30;50.10;;;;;;;13.11;100.00;99458.17;182406;1234;59434;-84
2024/03/02 17:45:59;;;;;;;65.20;48.20;;;;;;;13.05;100.00;99455.41;181844;1238;46063;-84
2024/03/02 17:50:01;;;;;;;56.70;40.90;;;;;;;13.00;100.00;99456.27;182625;1238;46102;-84
2024/03/02 17:54:04;;;;;;;55.60;40.00;;;;;;;12.93;100.00;99455.92;182231;1234;46100;-85
2024/03/02 17:58:06;;;;;;;58.20;41.80;;;;;;;12.87;100.00;99454.09;182420;1235;45964;-84
2024/03/02 18:02:07;;;;;;;63.10;43.90;;;;;;;12.79;100.00;99452.94;182218;1235;58079;-85
2024/03/02 18:06:09;;;;;;;60.30;41.90;;;;;;;12.70;100.00;99455.13;182232;1236;46087;-85
2024/03/02 18:10:11;;;;;;;56.20;43.70;;;;;;;12.58;100.00;99453.34;182603;1238;46086;-85
2024/03/02 18:14:13;;;;;;;63.30;44.90;;;;;;;12.47;100.00;99463.72;181977;1235;45974;-84
2024/03/02 18:18:15;;;;;;;62.50;46.10;;;;;;;12.39;100.00;99467.29;182122;1238;46073;-84
2024/03/02 18:22:17;;;;;;;53.00;39.60;;;;;;;12.33;100.00;99468.14;182110;1236;57157;-84